Etusivu
METAR-TAF:

METAR-TAF

Lentoasemat :

Irene, Etelä-Afrikka

Leveyspiiri: 25-54-36S, Pituuspiiri: 28-12-40E, korkeus merenpinnasta: 1523 m

Tämänhetkinen sää

Tämä raportti tehtiin 23 tuntia ja 38 minuuttia sitten, kello 07.54 UTC
Tuuli 1 kn idästä
Lämpötila 19°C
Kosteus 40%
Ilmanpaine 1031 hPa
Näkyvyys 10 km tai enemmän
ei pilviä alle 1500 m:ssä eikä cumulonimbus-pilviä

METAR: FAIR 250754Z 10001KT CAVOK 19/05 Q1031

Aika: 09:32 (07:32 UTC)


TAF: puuttuu

Säähavainnot ja -ennusteet yli 4000 lentoasemalta (METAR- ja TAF-raportit).

Käytössä olevat sääasemat on merkitty karttaan keltaisilla ja punaisilla pisteillä.

Aseta hiiri pisteen päälle nähdäksesi sääaseman nimen.

Klikkaa sitten nähdäksesi säähavainnot ja -ennusteet.

Kartan vaihtaminen: klikkaa mustalla rastilla varustettuja vihreitä pisteitä, niin voit zoomata sisään; viivalla varustettua vihreää pistettä, niin voit zoomata ulos tai vihreitä nuolia, niin pääset viereisille kartoille.


METAR-TAF: